createdAt,value
2019-02-24T00:00:43.674Z,99.90
2019-02-24T00:03:13.614Z,99.90
2019-02-24T00:05:45.115Z,99.90
2019-02-24T00:08:14.921Z,99.90
2019-02-24T00:10:46.559Z,99.90
2019-02-24T00:13:18.319Z,99.90
2019-02-24T00:15:49.307Z,99.90
2019-02-24T00:18:20.917Z,99.90
2019-02-24T00:20:50.598Z,99.90
2019-02-24T00:23:23.429Z,99.90
2019-02-24T00:25:55.493Z,99.90
2019-02-24T00:28:25.180Z,99.90
2019-02-24T00:30:54.864Z,99.90
2019-02-24T00:33:24.646Z,99.90
2019-02-24T00:35:54.359Z,99.90
2019-02-24T00:38:24.228Z,99.90
2019-02-24T00:40:53.990Z,99.90
2019-02-24T00:43:24.639Z,99.90
2019-02-24T00:45:56.915Z,99.90
2019-02-24T00:48:26.611Z,99.90
2019-02-24T00:50:56.284Z,99.90
2019-02-24T00:53:25.994Z,99.90
2019-02-24T00:55:56.023Z,99.90
2019-02-24T00:58:25.819Z,99.90
2019-02-24T01:00:55.600Z,99.90
2019-02-24T01:03:25.470Z,99.90
2019-02-24T01:05:55.330Z,99.90
2019-02-24T01:08:25.156Z,99.90
2019-02-24T01:10:56.322Z,99.90
2019-02-24T01:13:26.014Z,99.90
2019-02-24T01:15:58.165Z,99.90
2019-02-24T01:18:27.855Z,99.90
2019-02-24T01:20:57.649Z,99.90
2019-02-24T01:23:28.338Z,99.90
2019-02-24T01:25:58.180Z,99.90
2019-02-24T01:28:28.035Z,99.90
2019-02-24T01:31:01.810Z,99.90
2019-02-24T01:33:31.507Z,99.90
2019-02-24T01:36:01.214Z,99.90
2019-02-24T01:38:31.311Z,99.90
2019-02-24T01:41:01.180Z,99.90
2019-02-24T01:43:30.899Z,99.90
2019-02-24T01:46:00.609Z,99.90
2019-02-24T01:48:30.558Z,99.90
2019-02-24T01:51:00.407Z,99.90
2019-02-24T01:53:30.248Z,99.90
2019-02-24T01:56:00.088Z,99.90
2019-02-24T01:58:35.196Z,99.90
2019-02-24T02:01:02.764Z,99.90
2019-02-24T02:03:32.672Z,99.90
2019-02-24T02:06:02.486Z,99.90
2019-02-24T02:08:32.319Z,99.90
2019-02-24T02:11:02.110Z,99.90
2019-02-24T02:13:31.952Z,99.90
2019-02-24T02:16:01.783Z,99.90
2019-02-24T02:18:31.636Z,99.90
2019-02-24T02:21:01.402Z,99.90
2019-02-24T02:23:31.575Z,99.90
2019-02-24T02:26:02.444Z,99.90
2019-02-24T02:28:32.254Z,99.90
2019-02-24T02:31:02.138Z,99.90
2019-02-24T02:33:31.931Z,99.90
2019-02-24T02:36:01.800Z,99.90
2019-02-24T02:38:31.666Z,99.90
2019-02-24T02:41:04.797Z,99.90
2019-02-24T02:43:34.511Z,99.90
2019-02-24T02:46:04.317Z,99.90
2019-02-24T02:48:34.146Z,99.90
2019-02-24T02:51:04.063Z,99.90
2019-02-24T02:53:33.918Z,99.90
2019-02-24T02:56:03.754Z,99.90
2019-02-24T02:58:33.476Z,99.90
2019-02-24T03:01:05.886Z,99.90
2019-02-24T03:03:37.955Z,99.90
2019-02-24T03:06:23.109Z,99.90
2019-02-24T03:08:53.265Z,99.90
2019-02-24T03:11:23.111Z,99.90
2019-02-24T03:13:53.055Z,99.90
2019-02-24T03:16:25.955Z,99.90
2019-02-24T03:18:58.122Z,99.90
2019-02-24T03:21:28.266Z,99.90
2019-02-24T03:23:58.020Z,99.90
2019-02-24T03:26:27.849Z,99.90
2019-02-24T03:29:03.996Z,99.90
2019-02-24T03:31:31.876Z,99.90
2019-02-24T03:34:01.632Z,99.90
2019-02-24T03:36:31.959Z,99.90
2019-02-24T03:39:01.949Z,99.90
2019-02-24T03:41:33.806Z,99.90
2019-02-24T03:44:06.802Z,99.90
2019-02-24T03:46:36.591Z,99.90
2019-02-24T03:49:06.388Z,99.90
2019-02-24T03:51:36.111Z,99.90
2019-02-24T03:54:06.042Z,99.90
2019-02-24T03:56:36.107Z,99.90
2019-02-24T03:59:14.789Z,99.90
2019-02-24T04:01:37.684Z,99.90
2019-02-24T04:04:07.645Z,99.90
2019-02-24T04:06:37.510Z,99.90
2019-02-24T04:09:09.251Z,99.90
2019-02-24T04:11:39.095Z,99.90
2019-02-24T04:14:09.069Z,99.90
2019-02-24T04:16:38.942Z,99.90
2019-02-24T04:19:10.414Z,99.90
2019-02-24T04:21:43.302Z,99.90
2019-02-24T04:24:14.843Z,99.90
2019-02-24T04:26:45.916Z,99.90
2019-02-24T04:29:24.751Z,99.90
2019-02-24T04:31:50.403Z,99.90
2019-02-24T04:34:20.724Z,99.90
2019-02-24T04:36:50.776Z,99.90
2019-02-24T04:39:20.529Z,99.90
2019-02-24T04:41:50.459Z,99.90
2019-02-24T04:44:21.398Z,99.90
2019-02-24T04:46:51.303Z,99.90
2019-02-24T04:49:21.214Z,99.90
2019-02-24T04:51:50.976Z,99.90
2019-02-24T04:54:21.885Z,99.90
2019-02-24T04:56:51.741Z,99.90
2019-02-24T04:59:21.590Z,99.90
2019-02-24T05:01:51.528Z,99.90
2019-02-24T05:04:21.399Z,99.90
2019-02-24T05:06:51.242Z,99.90
2019-02-24T05:09:21.150Z,99.90
2019-02-24T05:11:50.923Z,99.90
2019-02-24T05:14:20.752Z,99.90
2019-02-24T05:16:50.601Z,99.90
2019-02-24T05:19:23.890Z,99.90
2019-02-24T05:21:55.957Z,99.90
2019-02-24T05:24:25.666Z,99.90
2019-02-24T05:26:55.395Z,99.90
2019-02-24T05:29:25.140Z,99.90
2019-02-24T05:31:54.905Z,99.90
2019-02-24T05:34:24.744Z,99.90
2019-02-24T05:36:54.634Z,99.90
2019-02-24T05:39:24.882Z,99.90
2019-02-24T05:41:54.788Z,99.90
2019-02-24T05:44:24.636Z,99.90
2019-02-24T05:46:54.553Z,99.90
2019-02-24T05:49:24.313Z,99.90
2019-02-24T05:51:54.075Z,99.90
2019-02-24T05:54:23.778Z,99.90
2019-02-24T05:56:53.626Z,99.90
2019-02-24T05:59:23.392Z,99.90
2019-02-24T06:01:53.119Z,99.90
2019-02-24T06:04:23.075Z,99.90
2019-02-24T06:06:52.975Z,99.90
2019-02-24T06:09:22.782Z,99.90
2019-02-24T06:11:52.591Z,99.90
2019-02-24T06:14:22.374Z,99.90
2019-02-24T06:16:52.251Z,99.90
2019-02-24T06:19:22.903Z,99.90
2019-02-24T06:21:52.847Z,99.90
2019-02-24T06:24:23.220Z,99.90
2019-02-24T06:26:53.565Z,99.90
2019-02-24T06:29:23.497Z,99.90
2019-02-24T06:31:53.347Z,99.90
2019-02-24T06:34:23.318Z,99.90
2019-02-24T06:36:58.100Z,99.90
2019-02-24T06:39:27.862Z,99.90
2019-02-24T06:41:57.618Z,99.90
2019-02-24T06:44:27.685Z,99.90
2019-02-24T06:46:59.343Z,99.90
2019-02-24T06:49:29.054Z,99.90
2019-02-24T06:52:00.126Z,99.90
2019-02-24T06:54:38.934Z,99.90
2019-02-24T06:57:10.877Z,99.90
2019-02-24T06:59:43.674Z,99.90
2019-02-24T07:02:15.805Z,99.90
2019-02-24T07:04:47.495Z,99.90
2019-02-24T07:07:17.314Z,99.90
2019-02-24T07:09:50.254Z,99.90
2019-02-24T07:12:20.114Z,99.90
2019-02-24T07:14:49.807Z,99.90
2019-02-24T07:17:19.521Z,99.90
2019-02-24T07:19:49.376Z,99.90
2019-02-24T07:22:19.087Z,99.90
2019-02-24T07:24:49.567Z,99.90
2019-02-24T07:27:20.586Z,99.90
2019-02-24T07:29:50.383Z,99.90
2019-02-24T07:32:20.102Z,99.90
2019-02-24T07:34:49.959Z,99.90
2019-02-24T07:37:20.626Z,99.90
2019-02-24T07:39:52.925Z,99.90
2019-02-24T07:42:24.547Z,99.90
2019-02-24T07:44:56.882Z,99.90
2019-02-24T07:47:26.578Z,99.90
2019-02-24T07:49:57.707Z,99.90
2019-02-24T07:52:29.131Z,99.90
2019-02-24T07:54:58.990Z,99.90
2019-02-24T07:57:28.802Z,99.90
2019-02-24T08:00:00.991Z,99.90
2019-02-24T08:02:32.549Z,99.90
2019-02-24T08:05:02.271Z,99.90
2019-02-24T08:07:33.130Z,99.90
2019-02-24T08:10:03.072Z,99.90
2019-02-24T08:12:32.871Z,99.90
2019-02-24T08:15:05.898Z,99.90
2019-02-24T08:17:35.587Z,99.90
2019-02-24T08:20:24.493Z,99.90
2019-02-24T08:22:54.287Z,99.90
2019-02-24T08:25:24.191Z,99.90
2019-02-24T08:27:55.561Z,99.90
2019-02-24T08:30:25.510Z,99.90
2019-02-24T08:32:55.314Z,99.90
2019-02-24T08:35:25.029Z,99.90
2019-02-24T08:38:04.197Z,99.90
2019-02-24T08:40:36.831Z,99.90
2019-02-24T08:43:10.665Z,99.90
2019-02-24T08:45:42.263Z,99.90
2019-02-24T08:48:13.343Z,99.90
2019-02-24T08:50:46.023Z,99.90
2019-02-24T08:53:15.714Z,99.90
2019-02-24T08:55:47.359Z,99.90
2019-02-24T08:58:19.431Z,99.90
2019-02-24T09:00:51.327Z,99.90
2019-02-24T09:03:20.883Z,99.90
2019-02-24T09:05:52.457Z,99.90
2019-02-24T09:08:22.297Z,99.90
2019-02-24T09:10:52.322Z,99.90
2019-02-24T09:13:22.142Z,99.90
2019-02-24T09:15:53.305Z,99.90
2019-02-24T09:18:23.252Z,99.90
2019-02-24T09:20:53.077Z,99.90
2019-02-24T09:23:22.843Z,99.90
2019-02-24T09:25:55.146Z,99.90
2019-02-24T09:28:26.211Z,99.90
2019-02-24T09:31:01.045Z,99.90
2019-02-24T09:33:32.188Z,99.90
2019-02-24T09:36:03.251Z,99.90
2019-02-24T09:38:35.926Z,99.90
2019-02-24T09:41:13.365Z,99.90
2019-02-24T09:43:44.852Z,99.90
2019-02-24T09:46:14.681Z,99.90
2019-02-24T09:48:49.675Z,99.90
2019-02-24T09:51:19.955Z,99.90
2019-02-24T09:53:53.810Z,99.90
2019-02-24T09:56:29.314Z,99.90
2019-02-24T09:59:00.312Z,99.90
2019-02-24T10:01:36.970Z,99.90
2019-02-24T10:04:19.372Z,99.90
2019-02-24T10:06:52.248Z,99.90
2019-02-24T10:09:23.746Z,99.90
2019-02-24T10:11:53.656Z,99.90
2019-02-24T10:14:25.959Z,99.90
2019-02-24T10:16:55.783Z,99.20
2019-02-24T10:19:25.509Z,99.90
2019-02-24T10:21:56.623Z,99.90
2019-02-24T10:24:26.313Z,99.90
2019-02-24T10:26:56.073Z,99.90
2019-02-24T10:29:27.722Z,99.90
2019-02-24T10:31:59.252Z,99.90
2019-02-24T10:34:30.647Z,99.90
2019-02-24T10:37:02.382Z,99.90
2019-02-24T10:39:32.077Z,99.60
2019-02-24T10:42:01.862Z,96.30
2019-02-24T10:44:31.624Z,95.80
2019-02-24T10:47:02.380Z,99.20
2019-02-24T10:49:32.392Z,99.90
2019-02-24T10:52:02.120Z,99.90
2019-02-24T10:54:33.501Z,99.90
2019-02-24T10:57:09.766Z,99.90
2019-02-24T10:59:42.846Z,99.90
2019-02-24T11:02:15.922Z,99.90
2019-02-24T11:04:49.040Z,99.90
2019-02-24T11:07:21.442Z,99.90
2019-02-24T11:09:52.402Z,99.90
2019-02-24T11:12:24.138Z,99.90
2019-02-24T11:14:53.868Z,99.60
2019-02-24T11:17:26.649Z,99.70
2019-02-24T11:19:58.922Z,98.10
2019-02-24T11:22:29.754Z,97.90
2019-02-24T11:25:00.938Z,99.40
2019-02-24T11:27:31.334Z,99.90
2019-02-24T11:30:03.471Z,99.70
2019-02-24T11:32:34.524Z,99.50
2019-02-24T11:35:04.824Z,97.00
2019-02-24T11:37:34.537Z,96.20
2019-02-24T11:40:06.258Z,95.50
2019-02-24T11:42:35.970Z,95.50
2019-02-24T11:45:08.479Z,96.60
2019-02-24T11:47:39.501Z,97.30
2019-02-24T11:50:09.482Z,97.20
2019-02-24T11:52:39.274Z,97.50
2019-02-24T11:55:10.624Z,95.80
2019-02-24T11:57:40.434Z,94.90
2019-02-24T12:00:10.574Z,91.50
2019-02-24T12:02:42.106Z,93.10
2019-02-24T12:05:13.342Z,91.70
2019-02-24T12:07:45.622Z,90.90
2019-02-24T12:10:16.786Z,90.40
2019-02-24T12:12:48.374Z,90.40
2019-02-24T12:15:21.049Z,88.20
2019-02-24T12:17:54.034Z,86.80
2019-02-24T12:20:24.434Z,85.50
2019-02-24T12:22:57.579Z,81.10
2019-02-24T12:25:27.354Z,83.40
2019-02-24T12:27:57.433Z,80.80
2019-02-24T12:30:30.363Z,98.80
2019-02-24T12:33:00.748Z,99.90
2019-02-24T12:35:33.451Z,99.90
2019-02-24T12:38:03.500Z,99.90
2019-02-24T12:40:33.409Z,99.90
2019-02-24T12:43:06.034Z,99.90
2019-02-24T12:45:35.948Z,99.90
2019-02-24T12:48:07.459Z,99.90
2019-02-24T12:50:37.186Z,99.90
2019-02-24T12:53:11.588Z,99.90
2019-02-24T12:55:42.370Z,99.90
2019-02-24T12:58:12.081Z,99.90
2019-02-24T13:00:41.839Z,99.90
2019-02-24T13:03:11.684Z,99.90
2019-02-24T13:05:41.543Z,99.90
2019-02-24T13:08:14.504Z,99.90
2019-02-24T13:10:44.291Z,99.90
2019-02-24T13:13:14.098Z,99.90
2019-02-24T13:15:45.472Z,99.90
2019-02-24T13:18:15.254Z,99.90
2019-02-24T13:20:45.111Z,99.90
2019-02-24T13:23:14.991Z,96.90
2019-02-24T13:25:47.819Z,97.60
2019-02-24T13:28:19.388Z,95.50
2019-02-24T13:30:54.674Z,95.50
2019-02-24T13:33:24.379Z,95.70
2019-02-24T13:35:54.078Z,96.20
2019-02-24T13:38:25.506Z,93.60
2019-02-24T13:40:55.295Z,95.30
2019-02-24T13:43:25.047Z,94.90
2019-02-24T13:45:54.766Z,95.60
2019-02-24T13:48:26.382Z,96.60
2019-02-24T13:50:56.103Z,97.90
2019-02-24T13:53:28.662Z,98.60
2019-02-24T13:55:58.463Z,99.90
2019-02-24T13:58:31.444Z,99.90
2019-02-24T14:01:03.695Z,98.80
2019-02-24T14:03:33.393Z,97.70
2019-02-24T14:06:04.621Z,95.10
2019-02-24T14:08:36.743Z,91.30
2019-02-24T14:11:10.146Z,90.50
2019-02-24T14:13:39.914Z,90.20
2019-02-24T14:16:09.802Z,87.00
2019-02-24T14:18:41.127Z,85.00
2019-02-24T14:21:11.150Z,62.40
2019-02-24T14:23:43.767Z,60.00
2019-02-24T14:26:14.083Z,58.80
2019-02-24T14:28:43.854Z,58.40
2019-02-24T14:31:13.587Z,58.90
2019-02-24T14:33:43.349Z,60.20
2019-02-24T14:36:13.547Z,59.40
2019-02-24T14:38:43.258Z,60.10
2019-02-24T14:41:13.227Z,59.40
2019-02-24T14:43:43.038Z,59.40
2019-02-24T14:46:12.850Z,61.40
2019-02-24T14:48:44.710Z,61.70
2019-02-24T14:51:15.533Z,63.90
2019-02-24T14:53:45.707Z,78.00
2019-02-24T14:56:18.034Z,89.10
2019-02-24T14:58:50.174Z,91.90
2019-02-24T15:01:19.970Z,93.70
2019-02-24T15:03:49.851Z,92.20
2019-02-24T15:06:20.685Z,92.80
2019-02-24T15:08:52.038Z,94.00
2019-02-24T15:11:23.946Z,92.20
2019-02-24T15:13:53.670Z,90.40
2019-02-24T15:16:23.530Z,88.70
2019-02-24T15:18:53.613Z,87.10
2019-02-24T15:21:23.367Z,86.60
2019-02-24T15:23:53.248Z,85.80
2019-02-24T15:26:23.047Z,84.80
2019-02-24T15:28:52.739Z,87.00
2019-02-24T15:31:24.862Z,87.10
2019-02-24T15:33:58.868Z,89.10
2019-02-24T15:36:28.573Z,88.10
2019-02-24T15:38:58.281Z,87.80
2019-02-24T15:41:31.475Z,88.00
2019-02-24T15:44:07.046Z,88.30
2019-02-24T15:46:36.796Z,76.30
2019-02-24T15:49:07.862Z,72.50
2019-02-24T15:51:40.196Z,69.50
2019-02-24T15:54:10.058Z,70.00
2019-02-24T15:56:43.724Z,70.70
2019-02-24T15:59:14.812Z,76.30
2019-02-24T16:01:44.761Z,85.50
2019-02-24T16:04:16.395Z,80.50
2019-02-24T16:06:47.238Z,75.10
2019-02-24T16:09:20.890Z,75.20
2019-02-24T16:11:51.776Z,81.20
2019-02-24T16:14:21.516Z,78.70
2019-02-24T16:17:01.568Z,76.50
2019-02-24T16:19:34.598Z,74.60
2019-02-24T16:22:04.391Z,78.20
2019-02-24T16:24:34.247Z,80.80
2019-02-24T16:27:05.153Z,81.70
2019-02-24T16:29:38.335Z,82.20
2019-02-24T16:32:08.180Z,80.10
2019-02-24T16:34:39.166Z,84.20
2019-02-24T16:37:08.878Z,86.50
2019-02-24T16:39:41.823Z,89.60
2019-02-24T16:42:11.633Z,85.10
2019-02-24T16:44:41.498Z,84.20
2019-02-24T16:47:13.026Z,86.50
2019-02-24T16:49:43.115Z,86.40
2019-02-24T16:52:14.767Z,89.40
2019-02-24T16:54:52.462Z,90.90
2019-02-24T16:57:16.227Z,92.30
2019-02-24T16:59:48.378Z,98.10
2019-02-24T17:02:23.051Z,99.90
2019-02-24T17:04:52.448Z,99.90
2019-02-24T17:07:22.296Z,99.90
2019-02-24T17:09:52.064Z,99.90
2019-02-24T17:12:25.618Z,99.90
2019-02-24T17:15:02.147Z,99.90
2019-02-24T17:17:33.121Z,99.90
2019-02-24T17:20:04.791Z,99.90
2019-02-24T17:22:34.573Z,99.90
2019-02-24T17:25:10.490Z,99.90
2019-02-24T17:27:42.951Z,99.90
2019-02-24T17:30:14.221Z,99.90
2019-02-24T17:32:44.110Z,99.90
2019-02-24T17:35:16.502Z,99.90
2019-02-24T17:37:47.447Z,99.90
2019-02-24T17:40:19.562Z,99.90
2019-02-24T17:42:51.929Z,99.90
2019-02-24T17:45:21.809Z,99.90
2019-02-24T17:47:51.579Z,99.90
2019-02-24T17:50:21.330Z,99.90
2019-02-24T17:52:52.903Z,99.90
2019-02-24T17:55:23.044Z,99.90
2019-02-24T17:58:00.582Z,99.90
2019-02-24T18:00:32.481Z,99.90
2019-02-24T18:03:02.340Z,99.90
2019-02-24T18:05:32.015Z,99.90
2019-02-24T18:08:05.699Z,99.90
2019-02-24T18:10:36.655Z,99.90
2019-02-24T18:13:06.487Z,99.90
2019-02-24T18:15:37.070Z,99.90
2019-02-24T18:18:08.717Z,99.90
2019-02-24T18:20:38.608Z,99.90
2019-02-24T18:23:08.307Z,99.90
2019-02-24T18:25:39.180Z,99.90
2019-02-24T18:28:09.051Z,99.90
2019-02-24T18:30:39.266Z,99.90
2019-02-24T18:33:15.874Z,99.90
2019-02-24T18:35:48.695Z,99.90
2019-02-24T18:38:28.050Z,99.90
2019-02-24T18:40:58.286Z,99.90
2019-02-24T18:43:29.213Z,99.90
2019-02-24T18:46:00.495Z,99.90
2019-02-24T18:48:34.151Z,99.90
2019-02-24T18:51:06.343Z,99.90
2019-02-24T18:53:36.061Z,99.90
2019-02-24T18:56:06.803Z,99.90
2019-02-24T18:58:36.774Z,99.90
2019-02-24T19:01:14.064Z,99.90
2019-02-24T19:03:46.401Z,99.90
2019-02-24T19:06:16.360Z,99.90
2019-02-24T19:08:49.530Z,99.90
2019-02-24T19:11:20.313Z,99.90
2019-02-24T19:13:50.019Z,99.90
2019-02-24T19:16:23.081Z,99.90
2019-02-24T19:18:59.867Z,99.90
2019-02-24T19:21:32.421Z,99.90
2019-02-24T19:24:02.102Z,99.90
2019-02-24T19:26:31.872Z,99.90
2019-02-24T19:29:02.826Z,99.90
2019-02-24T19:31:35.886Z,99.90
2019-02-24T19:34:06.944Z,99.90
2019-02-24T19:36:36.976Z,99.90
2019-02-24T19:39:12.084Z,99.90
2019-02-24T19:41:42.906Z,99.90
2019-02-24T19:44:13.863Z,99.90
2019-02-24T19:46:48.021Z,99.90
2019-02-24T19:49:17.995Z,99.90
2019-02-24T19:51:50.602Z,99.90
2019-02-24T19:54:21.831Z,99.90
2019-02-24T19:56:51.912Z,99.90
2019-02-24T19:59:24.686Z,99.90
2019-02-24T20:01:55.098Z,99.90
2019-02-24T20:04:25.543Z,99.90
2019-02-24T20:06:59.607Z,99.90
2019-02-24T20:09:29.547Z,99.90
2019-02-24T20:11:59.954Z,99.90
2019-02-24T20:14:30.456Z,99.90
2019-02-24T20:17:01.281Z,99.90
2019-02-24T20:19:31.270Z,99.90
2019-02-24T20:22:01.902Z,99.90
2019-02-24T20:24:33.217Z,99.90
2019-02-24T20:27:03.850Z,99.90
2019-02-24T20:29:34.299Z,99.90
2019-02-24T20:32:04.258Z,99.90
2019-02-24T20:34:34.344Z,99.90
2019-02-24T20:37:04.176Z,99.90
2019-02-24T20:39:35.934Z,99.90
2019-02-24T20:42:09.201Z,99.90
2019-02-24T20:44:39.206Z,99.90
2019-02-24T20:47:08.933Z,99.90
2019-02-24T20:49:39.142Z,99.90
2019-02-24T20:52:11.834Z,99.90
2019-02-24T20:54:44.778Z,99.90
2019-02-24T20:57:15.229Z,99.90
2019-02-24T20:59:45.407Z,99.90
2019-02-24T21:02:20.309Z,99.90
2019-02-24T21:04:51.483Z,99.90
2019-02-24T21:07:21.854Z,99.90
2019-02-24T21:09:52.049Z,99.90
2019-02-24T21:12:23.889Z,99.90
2019-02-24T21:14:55.294Z,99.90
2019-02-24T21:17:25.696Z,99.90
2019-02-24T21:19:56.082Z,99.90
2019-02-24T21:22:29.281Z,99.90
2019-02-24T21:24:59.495Z,99.90
2019-02-24T21:27:31.168Z,99.90
2019-02-24T21:30:10.331Z,99.90
2019-02-24T21:32:40.582Z,99.90
2019-02-24T21:35:12.274Z,99.90
2019-02-24T21:37:45.331Z,99.90
2019-02-24T21:40:24.176Z,99.90
2019-02-24T21:42:54.726Z,99.90
2019-02-24T21:45:27.412Z,99.90
2019-02-24T21:47:57.163Z,99.90
2019-02-24T21:50:26.999Z,99.90
2019-02-24T21:52:56.798Z,99.90
2019-02-24T21:55:26.732Z,99.90
2019-02-24T21:57:57.347Z,99.90
2019-02-24T22:00:32.426Z,99.90
2019-02-24T22:03:04.132Z,99.90
2019-02-24T22:05:33.990Z,99.90
2019-02-24T22:08:06.603Z,99.90
2019-02-24T22:10:39.567Z,99.90
2019-02-24T22:13:09.489Z,99.90
2019-02-24T22:15:39.298Z,99.90
2019-02-24T22:18:09.016Z,99.90
2019-02-24T22:20:38.818Z,99.90
2019-02-24T22:23:09.700Z,99.90
2019-02-24T22:25:39.450Z,99.90
2019-02-24T22:28:09.270Z,99.90
2019-02-24T22:30:44.486Z,99.90
2019-02-24T22:33:14.246Z,99.90
2019-02-24T22:35:44.674Z,99.90
2019-02-24T22:38:14.514Z,99.90
2019-02-24T22:40:44.264Z,99.90
2019-02-24T22:43:21.017Z,99.90
2019-02-24T22:45:53.555Z,99.90
2019-02-24T22:48:23.381Z,99.90
2019-02-24T22:51:03.140Z,99.90
2019-02-24T22:53:34.225Z,99.90
2019-02-24T22:56:05.998Z,99.90
2019-02-24T22:58:36.323Z,99.90
2019-02-24T23:01:13.856Z,99.90
2019-02-24T23:03:48.039Z,99.90
2019-02-24T23:06:17.974Z,99.90
2019-02-24T23:08:47.898Z,99.90
2019-02-24T23:11:17.967Z,99.90
2019-02-24T23:13:48.910Z,99.90
2019-02-24T23:16:23.533Z,99.90
2019-02-24T23:18:53.269Z,99.90
2019-02-24T23:21:25.646Z,99.90
2019-02-24T23:23:55.516Z,99.90
2019-02-24T23:26:25.343Z,99.90
2019-02-24T23:28:55.213Z,99.90
2019-02-24T23:31:26.663Z,99.90
2019-02-24T23:34:00.971Z,99.90
2019-02-24T23:36:35.955Z,99.90
2019-02-24T23:39:14.806Z,99.90
2019-02-24T23:41:45.058Z,99.90
2019-02-24T23:44:17.615Z,99.90
2019-02-24T23:46:47.479Z,99.90
2019-02-24T23:49:17.235Z,99.90
2019-02-24T23:51:53.146Z,99.90
2019-02-24T23:54:26.600Z,99.90
2019-02-24T23:56:56.410Z,99.90
2019-02-24T23:59:26.359Z,99.90
